African Highway — 3EOD8 — position and weather

sailwx.info

Track history (hours):
 
Tides and Currents Weather Stations Pressure Air Temp Water Temp Dewpoint Dewpoint Depression Visibility Wind Speed Wind Dir Waves Ship Positions

African Highway

Last reported at 2016-Feb-10 02:33 UTC. Time now 2016-Feb-10 02:40 UTC.
Position N 53°44' E 005°44'.

Length 154.5 m; beam 27.6 m.

Type: Cargo ship. MMSI: 353633000.

Date/timePositionNaut miles runAvg speedWind from/ knotsBaromVisibWave heightAir tempDewpointWater temp
2016-Feb-10 02:33N 53°44' E 005°44'1211.7
2016-Feb-10 01:33N 53°39' E 006°02'1313.0
2016-Feb-10 00:33N 53°37' E 006°24'1414.4
2016-Feb-09 23:33N 53°31' E 006°46'1313.4
2016-Feb-09 22:33N 53°20' E 006°60'7 6.6
2016-Feb-09 21:33N 53°20' E 007°11'0 0.0
2016-Feb-09 20:33N 53°20' E 007°11'0 0.0
2016-Feb-09 19:33N 53°20' E 007°11'0 0.0
2016-Feb-09 18:33N 53°20' E 007°11'0 0.0
2016-Feb-09 17:33N 53°20' E 007°11'0 0.0
2016-Feb-09 16:33N 53°20' E 007°11'0 0.0
2016-Feb-09 15:33N 53°20' E 007°11'0 0.0
2016-Feb-09 14:33N 53°20' E 007°11'0 0.0
2016-Feb-09 13:33N 53°20' E 007°11'0 0.0
2016-Feb-09 12:33N 53°20' E 007°11'0 0.0
2016-Feb-09 11:33N 53°20' E 007°11'5 5.2
2016-Feb-09 10:33N 53°19' E 007°02'1414.2
2016-Feb-09 09:33N 53°31' E 006°47'1615.5
2016-Feb-09 08:33N 53°37' E 006°23'7 7.5
2016-Feb-09 07:33N 53°40' E 006°12'8 7.5
2016-Feb-09 06:33N 53°40' E 005°59'1414.4
2016-Feb-09 05:33N 53°36' E 005°36'1515.2
2016-Feb-09 04:33N 53°32' E 005°11'2813.9
2016-Feb-09 02:33N 53°14' E 004°36'1414.2
2016-Feb-09 01:34N 53°02' E 004°24'1515.0
2016-Feb-09 00:33N 52°49' E 004°11'1514.7
2016-Feb-08 23:33N 52°37' E 003°56'7313.8
2016-Feb-08 18:14N 51°50' E 002°24'1115.6
2016-Feb-08 17:33N 51°44' E 002°10'1716.6
2016-Feb-08 16:33N 51°34' E 001°49'1514.8
2016-Feb-08 15:33N 51°25' E 001°29'1212.1
2016-Feb-08 14:33N 51°29' E 001°11'1515.1
2016-Feb-08 13:33N 51°28' E 000°47'2 1.9
2016-Feb-08 12:31N 51°26' E 000°44'0 0.0
2016-Feb-08 11:31N 51°26' E 000°44'0 0.0
2016-Feb-08 10:31N 51°26' E 000°44'0 0.0
2016-Feb-08 09:22N 51°26' E 000°44'0 0.0
2016-Feb-08 08:31N 51°26' E 000°44'0 0.0
2016-Feb-08 07:31N 51°26' E 000°44'0 0.0
2016-Feb-08 06:31N 51°26' E 000°44'0 0.0
2016-Feb-08 05:28N 51°26' E 000°44'0 0.0
2016-Feb-08 04:31N 51°26' E 000°44'0 0.0
2016-Feb-08 03:31N 51°26' E 000°44'0 0.1
2016-Feb-08 01:33N 51°26' E 000°44'7 7.4
2016-Feb-08 00:33N 51°29' E 000°56'1010.3
2016-Feb-07 23:33N 51°29' E 001°12'1110.9
2016-Feb-07 22:34N 51°29' E 001°30'3 3.2
2016-Feb-07 21:33N 51°26' E 001°31'4 4.3
2016-Feb-07 20:33N 51°29' E 001°36'6 5.7
2016-Feb-07 19:34N 51°32' E 001°44'7 6.8
2016-Feb-07 18:33N 51°35' E 001°55'9 8.5
2016-Feb-07 17:33N 51°37' E 002°08'9 8.8
2016-Feb-07 16:33N 51°44' E 002°17'119 8.9
2016-Feb-07 03:09N 53°14' E 004°26'5 8.6
2016-Feb-07 02:32N 53°19' E 004°29'19 9.6
2016-Feb-07 00:32N 53°32' E 004°53'1212.2
2016-Feb-06 23:33N 53°36' E 005°12'1312.7
2016-Feb-06 22:33N 53°40' E 005°32'1212.0
2016-Feb-06 21:33N 53°43' E 005°51'1111.2
2016-Feb-06 20:33N 53°47' E 006°09'1110.6
2016-Feb-06 19:33N 53°38' E 006°20'1211.7
2016-Feb-06 18:33N 53°34' E 006°39'1313.2
2016-Feb-06 17:33N 53°26' E 006°56'9 8.8
2016-Feb-06 16:33N 53°20' E 007°07'2 1.8
2016-Feb-06 15:34N 53°20' E 007°10'0 0.0
2016-Feb-06 14:32N 53°20' E 007°10'0 0.0
2016-Feb-06 13:31N 53°20' E 007°10'0 0.0
2016-Feb-06 12:32N 53°20' E 007°10'0 0.0
2016-Feb-06 11:31N 53°20' E 007°10'0 0.0
2016-Feb-06 10:33N 53°20' E 007°10'0 0.0
2016-Feb-06 09:32N 53°20' E 007°10'0 0.0
2016-Feb-06 08:31N 53°20' E 007°10'0 0.0
2016-Feb-06 07:33N 53°20' E 007°10'0 0.0
2016-Feb-06 06:33N 53°20' E 007°10'0 0.0
2016-Feb-06 05:33N 53°20' E 007°10'0 0.0
2016-Feb-06 04:32N 53°20' E 007°10'0 0.0
2016-Feb-06 03:33N 53°20' E 007°10'0 0.0
2016-Feb-06 02:32N 53°20' E 007°10'0 0.0
2016-Feb-06 01:32N 53°20' E 007°10'0 0.0
2016-Feb-06 00:32N 53°20' E 007°10'0 0.0
2016-Feb-05 23:32N 53°20' E 007°10'0 0.0
2016-Feb-05 22:34N 53°20' E 007°10'6 6.2
2016-Feb-05 21:33N 53°21' E 006°59'1514.8
2016-Feb-05 20:33N 53°32' E 006°44'1514.6
2016-Feb-05 19:33N 53°37' E 006°21'5 5.5
2016-Feb-05 18:33N 53°40' E 006°13'3 2.5
2016-Feb-05 17:33N 53°39' E 006°17'3 2.6
2016-Feb-05 16:33N 53°37' E 006°13'6 5.5
2016-Feb-05 15:33N 53°37' E 006°04'4 4.2
2016-Feb-05 14:33N 53°39' E 006°10'3 2.9
2016-Feb-05 13:33N 53°39' E 006°15'6 6.0
2016-Feb-05 12:33N 53°39' E 006°04'1211.9
2016-Feb-05 11:33N 53°37' E 005°45'1515.1
2016-Feb-05 10:33N 53°33' E 005°20'1514.6
2016-Feb-05 09:30N 53°28' E 004°56'1513.9
2016-Feb-05 08:24N 53°17' E 004°37'1214.3
2016-Feb-05 07:33N 53°07' E 004°27'1514.5
2016-Feb-05 06:33N 52°54' E 004°16'1414.4
2016-Feb-05 05:33N 52°42' E 004°02'1514.8
2016-Feb-05 04:33N 52°32' E 003°45'1615.2
2016-Feb-05 03:29N 52°20' E 003°27'4715.6
2016-Feb-05 00:29N 51°51' E 002°27'1516.4
2016-Feb-04 23:33N 51°42' E 002°07'1716.7
2016-Feb-04 22:34N 51°33' E 001°45'1312.8
2016-Feb-04 21:33N 51°27' E 001°26'1414.5
2016-Feb-04 20:33N 51°30' E 001°03'1212.2
2016-Feb-04 19:33N 51°26' E 000°44'0 0.1
2016-Feb-04 18:29N 51°26' E 000°44'0 0.0
2016-Feb-04 17:29N 51°26' E 000°44'0 0.0
2016-Feb-04 16:32N 51°26' E 000°44'0 0.0
2016-Feb-04 15:32N 51°26' E 000°44'0 0.0
2016-Feb-04 14:32N 51°26' E 000°44'0 0.0
2016-Feb-04 13:29N 51°26' E 000°44'0 0.1
2016-Feb-04 12:33N 51°26' E 000°44'6 6.1
2016-Feb-04 11:34N 51°29' E 000°53'3 3.5
2016-Feb-04 10:33N 51°29' E 000°59'5 5.1
2016-Feb-04 09:34N 51°30' E 001°07'1211.5
2016-Feb-04 08:34N 51°28' E 001°25'5 5.0
2016-Feb-04 07:34N 51°27' E 001°33'8 8.3
2016-Feb-04 06:34N 51°32' E 001°44'9 8.7
2016-Feb-04 05:33N 51°35' E 001°57'8 8.0
2016-Feb-04 04:34N 51°37' E 002°09'7 7.0
2016-Feb-04 03:33N 51°42' E 002°18'6 6.3
2016-Feb-04 02:33N 51°46' E 002°25'72 8.0
2016-Feb-03 17:33N 52°42' E 003°37'4110.0
2016-Feb-03 13:29N 53°11' E 004°26'3110.5
2016-Feb-03 10:32N 53°33' E 005°01'1110.9
2016-Feb-03 09:33N 53°36' E 005°18'1111.3
2016-Feb-03 08:34N 53°40' E 005°37'9 8.6
2016-Feb-03 07:34N 53°36' E 005°50'1111.4
2016-Feb-03 06:34N 53°37' E 006°09'1010.3
2016-Feb-03 05:34N 53°37' E 006°26'1110.6
2016-Feb-03 04:33N 53°33' E 006°42'1211.6
2016-Feb-03 03:33N 53°25' E 006°56'8 7.8
2016-Feb-03 02:34N 53°20' E 007°07'3 2.8
2016-Feb-03 01:34N 53°20' E 007°11'0 0.4
2016-Feb-03 00:33N 53°21' E 007°12'0 0.0
2016-Feb-02 23:33N 53°21' E 007°12'0 0.0
2016-Feb-02 22:33N 53°21' E 007°12'0 0.0
2016-Feb-02 21:30N 53°21' E 007°12'0 0.0
2016-Feb-02 20:33N 53°21' E 007°12'0 0.0
2016-Feb-02 19:33N 53°21' E 007°12'0 0.0
2016-Feb-02 18:27N 53°21' E 007°12'0 0.0
2016-Feb-02 17:33N 53°21' E 007°12'0 0.0
2016-Feb-02 16:31N 53°21' E 007°12'0 0.0
2016-Feb-02 15:33N 53°21' E 007°12'0 0.0
2016-Feb-02 14:33N 53°21' E 007°12'0 0.0
2016-Feb-02 13:33N 53°21' E 007°12'0 0.0
2016-Feb-02 12:33N 53°21' E 007°12'0 0.0
2016-Feb-02 11:33N 53°21' E 007°12'0 0.0
2016-Feb-02 10:33N 53°21' E 007°12'0 0.0
2016-Feb-02 09:33N 53°21' E 007°12'0 0.0
2016-Feb-02 08:33N 53°21' E 007°12'0 0.0
2016-Feb-02 07:33N 53°21' E 007°12'0 0.0
2016-Feb-02 06:30N 53°21' E 007°12'0 0.0
2016-Feb-02 05:33N 53°21' E 007°12'0 0.0
2016-Feb-02 04:33N 53°21' E 007°12'0 0.0
2016-Feb-02 03:33N 53°21' E 007°12'0 0.0
2016-Feb-02 02:33N 53°21' E 007°12'0 0.0
2016-Feb-02 01:33N 53°21' E 007°12'0 0.0
2016-Feb-02 00:33N 53°21' E 007°12'0 0.0
2016-Feb-01 23:33N 53°21' E 007°12'0 0.0
2016-Feb-01 22:33N 53°21' E 007°12'0 0.0
2016-Feb-01 21:33N 53°21' E 007°12'0 0.0
2016-Feb-01 20:33N 53°21' E 007°12'0 0.0
2016-Feb-01 19:33N 53°21' E 007°12'0 0.0
2016-Feb-01 18:33N 53°21' E 007°12'0 0.0
2016-Feb-01 17:33N 53°21' E 007°12'0 0.0
2016-Feb-01 16:30N 53°21' E 007°12'0 0.0
2016-Feb-01 15:33N 53°21' E 007°12'0 0.0
2016-Feb-01 14:33N 53°21' E 007°12'0 0.0
2016-Feb-01 13:33N 53°21' E 007°12'0 0.0
2016-Feb-01 12:30N 53°21' E 007°12'0 0.0
2016-Feb-01 11:32N 53°21' E 007°12'0 0.0
2016-Feb-01 10:32N 53°21' E 007°12'0 0.0
2016-Feb-01 09:33N 53°21' E 007°12'0 0.0
2016-Feb-01 08:32N 53°21' E 007°12'0 0.0
2016-Feb-01 07:33N 53°21' E 007°12'0 0.0
2016-Feb-01 06:30N 53°21' E 007°12'0 0.0
2016-Feb-01 05:27N 53°21' E 007°12'0 0.0
2016-Feb-01 04:33N 53°21' E 007°12'0 0.0
2016-Feb-01 03:33N 53°21' E 007°12'0 0.0
2016-Feb-01 02:33N 53°21' E 007°12'0 0.0
2016-Feb-01 01:33N 53°21' E 007°12'0 0.0
2016-Feb-01 00:27N 53°21' E 007°12'0 0.0
2016-Jan-31 23:33N 53°21' E 007°12'0 0.0
2016-Jan-31 22:33N 53°21' E 007°12'0 0.0
2016-Jan-31 21:33N 53°21' E 007°12'0 0.0
2016-Jan-31 20:33N 53°21' E 007°12'0 0.0
2016-Jan-31 19:33N 53°21' E 007°12'0 0.0
2016-Jan-31 18:33N 53°21' E 007°12'0 0.0
2016-Jan-31 17:33N 53°21' E 007°12'0 0.0
2016-Jan-31 16:33N 53°21' E 007°12'0 0.0
2016-Jan-31 15:33N 53°21' E 007°12'0 0.0
2016-Jan-31 14:33N 53°21' E 007°12'0 0.0
2016-Jan-31 13:33N 53°21' E 007°12'0 0.0
2016-Jan-31 12:30N 53°21' E 007°12'0 0.0
2016-Jan-31 11:33N 53°21' E 007°12'0 0.0
2016-Jan-31 10:33N 53°21' E 007°12'0 0.0
2016-Jan-31 09:33N 53°21' E 007°12'0 0.0
2016-Jan-31 08:33N 53°21' E 007°12'0 0.0
2016-Jan-31 07:33N 53°21' E 007°12'0 0.0
2016-Jan-31 06:33N 53°21' E 007°12'0 0.0
2016-Jan-31 05:33N 53°21' E 007°12'0 0.0
2016-Jan-31 04:30N 53°21' E 007°12'0 0.0
2016-Jan-31 03:33N 53°21' E 007°12'  
Track history (hours):
 
Tides and Currents Weather Stations Pressure Air Temp Water Temp Dewpoint Dewpoint Depression Visibility Wind Speed Wind Dir Waves Ship Positions

African Highway

Last reported at 2016-Feb-10 02:33 UTC. Time now 2016-Feb-10 02:40 UTC.
Position N 53°44' E 005°44'.

Length 154.5 m; beam 27.6 m.

Type: Cargo ship. MMSI: 353633000.

Date/timePositionNaut miles runAvg speedWind from/ knotsBaromVisibWave heightAir tempDewpointWater temp
2016-Feb-10 02:33N 53°44' E 005°44'1211.7
2016-Feb-10 01:33N 53°39' E 006°02'1313.0
2016-Feb-10 00:33N 53°37' E 006°24'1414.4
2016-Feb-09 23:33N 53°31' E 006°46'1313.4
2016-Feb-09 22:33N 53°20' E 006°60'7 6.6
2016-Feb-09 21:33N 53°20' E 007°11'0 0.0
2016-Feb-09 20:33N 53°20' E 007°11'0 0.0
2016-Feb-09 19:33N 53°20' E 007°11'0 0.0
2016-Feb-09 18:33N 53°20' E 007°11'0 0.0
2016-Feb-09 17:33N 53°20' E 007°11'0 0.0
2016-Feb-09 16:33N 53°20' E 007°11'0 0.0
2016-Feb-09 15:33N 53°20' E 007°11'0 0.0
2016-Feb-09 14:33N 53°20' E 007°11'0 0.0
2016-Feb-09 13:33N 53°20' E 007°11'0 0.0
2016-Feb-09 12:33N 53°20' E 007°11'0 0.0
2016-Feb-09 11:33N 53°20' E 007°11'5 5.2
2016-Feb-09 10:33N 53°19' E 007°02'1414.2
2016-Feb-09 09:33N 53°31' E 006°47'1615.5
2016-Feb-09 08:33N 53°37' E 006°23'7 7.5
2016-Feb-09 07:33N 53°40' E 006°12'8 7.5
2016-Feb-09 06:33N 53°40' E 005°59'1414.4
2016-Feb-09 05:33N 53°36' E 005°36'1515.2
2016-Feb-09 04:33N 53°32' E 005°11'2813.9
2016-Feb-09 02:33N 53°14' E 004°36'1414.2
2016-Feb-09 01:34N 53°02' E 004°24'1515.0
2016-Feb-09 00:33N 52°49' E 004°11'1514.7
2016-Feb-08 23:33N 52°37' E 003°56'7313.8
2016-Feb-08 18:14N 51°50' E 002°24'1115.6
2016-Feb-08 17:33N 51°44' E 002°10'1716.6
2016-Feb-08 16:33N 51°34' E 001°49'1514.8
2016-Feb-08 15:33N 51°25' E 001°29'1212.1
2016-Feb-08 14:33N 51°29' E 001°11'1515.1
2016-Feb-08 13:33N 51°28' E 000°47'2 1.9
2016-Feb-08 12:31N 51°26' E 000°44'0 0.0
2016-Feb-08 11:31N 51°26' E 000°44'0 0.0
2016-Feb-08 10:31N 51°26' E 000°44'0 0.0
2016-Feb-08 09:22N 51°26' E 000°44'0 0.0
2016-Feb-08 08:31N 51°26' E 000°44'0 0.0
2016-Feb-08 07:31N 51°26' E 000°44'0 0.0
2016-Feb-08 06:31N 51°26' E 000°44'0 0.0
2016-Feb-08 05:28N 51°26' E 000°44'0 0.0
2016-Feb-08 04:31N 51°26' E 000°44'0 0.0
2016-Feb-08 03:31N 51°26' E 000°44'0 0.1
2016-Feb-08 01:33N 51°26' E 000°44'7 7.4
2016-Feb-08 00:33N 51°29' E 000°56'1010.3
2016-Feb-07 23:33N 51°29' E 001°12'1110.9
2016-Feb-07 22:34N 51°29' E 001°30'3 3.2
2016-Feb-07 21:33N 51°26' E 001°31'4 4.3
2016-Feb-07 20:33N 51°29' E 001°36'6 5.7
2016-Feb-07 19:34N 51°32' E 001°44'7 6.8
2016-Feb-07 18:33N 51°35' E 001°55'9 8.5
2016-Feb-07 17:33N 51°37' E 002°08'9 8.8
2016-Feb-07 16:33N 51°44' E 002°17'119 8.9
2016-Feb-07 03:09N 53°14' E 004°26'5 8.6
2016-Feb-07 02:32N 53°19' E 004°29'19 9.6
2016-Feb-07 00:32N 53°32' E 004°53'1212.2
2016-Feb-06 23:33N 53°36' E 005°12'1312.7
2016-Feb-06 22:33N 53°40' E 005°32'1212.0
2016-Feb-06 21:33N 53°43' E 005°51'1111.2
2016-Feb-06 20:33N 53°47' E 006°09'1110.6
2016-Feb-06 19:33N 53°38' E 006°20'1211.7
2016-Feb-06 18:33N 53°34' E 006°39'1313.2
2016-Feb-06 17:33N 53°26' E 006°56'9 8.8
2016-Feb-06 16:33N 53°20' E 007°07'2 1.8
2016-Feb-06 15:34N 53°20' E 007°10'0 0.0
2016-Feb-06 14:32N 53°20' E 007°10'0 0.0
2016-Feb-06 13:31N 53°20' E 007°10'0 0.0
2016-Feb-06 12:32N 53°20' E 007°10'0 0.0
2016-Feb-06 11:31N 53°20' E 007°10'0 0.0
2016-Feb-06 10:33N 53°20' E 007°10'0 0.0
2016-Feb-06 09:32N 53°20' E 007°10'0 0.0
2016-Feb-06 08:31N 53°20' E 007°10'0 0.0
2016-Feb-06 07:33N 53°20' E 007°10'0 0.0
2016-Feb-06 06:33N 53°20' E 007°10'0 0.0
2016-Feb-06 05:33N 53°20' E 007°10'0 0.0
2016-Feb-06 04:32N 53°20' E 007°10'0 0.0
2016-Feb-06 03:33N 53°20' E 007°10'0 0.0
2016-Feb-06 02:32N 53°20' E 007°10'0 0.0
2016-Feb-06 01:32N 53°20' E 007°10'0 0.0
2016-Feb-06 00:32N 53°20' E 007°10'0 0.0
2016-Feb-05 23:32N 53°20' E 007°10'0 0.0
2016-Feb-05 22:34N 53°20' E 007°10'6 6.2
2016-Feb-05 21:33N 53°21' E 006°59'1514.8
2016-Feb-05 20:33N 53°32' E 006°44'1514.6
2016-Feb-05 19:33N 53°37' E 006°21'5 5.5
2016-Feb-05 18:33N 53°40' E 006°13'3 2.5
2016-Feb-05 17:33N 53°39' E 006°17'3 2.6
2016-Feb-05 16:33N 53°37' E 006°13'6 5.5
2016-Feb-05 15:33N 53°37' E 006°04'4 4.2
2016-Feb-05 14:33N 53°39' E 006°10'3 2.9
2016-Feb-05 13:33N 53°39' E 006°15'6 6.0
2016-Feb-05 12:33N 53°39' E 006°04'1211.9
2016-Feb-05 11:33N 53°37' E 005°45'1515.1
2016-Feb-05 10:33N 53°33' E 005°20'1514.6
2016-Feb-05 09:30N 53°28' E 004°56'1513.9
2016-Feb-05 08:24N 53°17' E 004°37'1214.3
2016-Feb-05 07:33N 53°07' E 004°27'1514.5
2016-Feb-05 06:33N 52°54' E 004°16'1414.4
2016-Feb-05 05:33N 52°42' E 004°02'1514.8
2016-Feb-05 04:33N 52°32' E 003°45'1615.2
2016-Feb-05 03:29N 52°20' E 003°27'4715.6
2016-Feb-05 00:29N 51°51' E 002°27'1516.4
2016-Feb-04 23:33N 51°42' E 002°07'1716.7
2016-Feb-04 22:34N 51°33' E 001°45'1312.8
2016-Feb-04 21:33N 51°27' E 001°26'1414.5
2016-Feb-04 20:33N 51°30' E 001°03'1212.2
2016-Feb-04 19:33N 51°26' E 000°44'0 0.1
2016-Feb-04 18:29N 51°26' E 000°44'0 0.0
2016-Feb-04 17:29N 51°26' E 000°44'0 0.0
2016-Feb-04 16:32N 51°26' E 000°44'0 0.0
2016-Feb-04 15:32N 51°26' E 000°44'0 0.0
2016-Feb-04 14:32N 51°26' E 000°44'0 0.0
2016-Feb-04 13:29N 51°26' E 000°44'0 0.1
2016-Feb-04 12:33N 51°26' E 000°44'6 6.1
2016-Feb-04 11:34N 51°29' E 000°53'3 3.5
2016-Feb-04 10:33N 51°29' E 000°59'5 5.1
2016-Feb-04 09:34N 51°30' E 001°07'1211.5
2016-Feb-04 08:34N 51°28' E 001°25'5 5.0
2016-Feb-04 07:34N 51°27' E 001°33'8 8.3
2016-Feb-04 06:34N 51°32' E 001°44'9 8.7
2016-Feb-04 05:33N 51°35' E 001°57'8 8.0
2016-Feb-04 04:34N 51°37' E 002°09'7 7.0
2016-Feb-04 03:33N 51°42' E 002°18'6 6.3
2016-Feb-04 02:33N 51°46' E 002°25'72 8.0
2016-Feb-03 17:33N 52°42' E 003°37'4110.0
2016-Feb-03 13:29N 53°11' E 004°26'3110.5
2016-Feb-03 10:32N 53°33' E 005°01'1110.9
2016-Feb-03 09:33N 53°36' E 005°18'1111.3
2016-Feb-03 08:34N 53°40' E 005°37'9 8.6
2016-Feb-03 07:34N 53°36' E 005°50'1111.4
2016-Feb-03 06:34N 53°37' E 006°09'1010.3
2016-Feb-03 05:34N 53°37' E 006°26'1110.6
2016-Feb-03 04:33N 53°33' E 006°42'1211.6
2016-Feb-03 03:33N 53°25' E 006°56'8 7.8
2016-Feb-03 02:34N 53°20' E 007°07'3 2.8
2016-Feb-03 01:34N 53°20' E 007°11'0 0.4
2016-Feb-03 00:33N 53°21' E 007°12'0 0.0
2016-Feb-02 23:33N 53°21' E 007°12'0 0.0
2016-Feb-02 22:33N 53°21' E 007°12'0 0.0
2016-Feb-02 21:30N 53°21' E 007°12'0 0.0
2016-Feb-02 20:33N 53°21' E 007°12'0 0.0
2016-Feb-02 19:33N 53°21' E 007°12'0 0.0
2016-Feb-02 18:27N 53°21' E 007°12'0 0.0
2016-Feb-02 17:33N 53°21' E 007°12'0 0.0
2016-Feb-02 16:31N 53°21' E 007°12'0 0.0
2016-Feb-02 15:33N 53°21' E 007°12'0 0.0
2016-Feb-02 14:33N 53°21' E 007°12'0 0.0
2016-Feb-02 13:33N 53°21' E 007°12'0 0.0
2016-Feb-02 12:33N 53°21' E 007°12'0 0.0
2016-Feb-02 11:33N 53°21' E 007°12'0 0.0
2016-Feb-02 10:33N 53°21' E 007°12'0 0.0
2016-Feb-02 09:33N 53°21' E 007°12'0 0.0
2016-Feb-02 08:33N 53°21' E 007°12'0 0.0
2016-Feb-02 07:33N 53°21' E 007°12'0 0.0
2016-Feb-02 06:30N 53°21' E 007°12'0 0.0
2016-Feb-02 05:33N 53°21' E 007°12'0 0.0
2016-Feb-02 04:33N 53°21' E 007°12'0 0.0
2016-Feb-02 03:33N 53°21' E 007°12'0 0.0
2016-Feb-02 02:33N 53°21' E 007°12'0 0.0
2016-Feb-02 01:33N 53°21' E 007°12'0 0.0
2016-Feb-02 00:33N 53°21' E 007°12'0 0.0
2016-Feb-01 23:33N 53°21' E 007°12'0 0.0
2016-Feb-01 22:33N 53°21' E 007°12'0 0.0
2016-Feb-01 21:33N 53°21' E 007°12'0 0.0
2016-Feb-01 20:33N 53°21' E 007°12'0 0.0
2016-Feb-01 19:33N 53°21' E 007°12'0 0.0
2016-Feb-01 18:33N 53°21' E 007°12'0 0.0
2016-Feb-01 17:33N 53°21' E 007°12'0 0.0
2016-Feb-01 16:30N 53°21' E 007°12'0 0.0
2016-Feb-01 15:33N 53°21' E 007°12'0 0.0
2016-Feb-01 14:33N 53°21' E 007°12'0 0.0
2016-Feb-01 13:33N 53°21' E 007°12'0 0.0
2016-Feb-01 12:30N 53°21' E 007°12'0 0.0
2016-Feb-01 11:32N 53°21' E 007°12'0 0.0
2016-Feb-01 10:32N 53°21' E 007°12'0 0.0
2016-Feb-01 09:33N 53°21' E 007°12'0 0.0
2016-Feb-01 08:32N 53°21' E 007°12'0 0.0
2016-Feb-01 07:33N 53°21' E 007°12'0 0.0
2016-Feb-01 06:30N 53°21' E 007°12'0 0.0
2016-Feb-01 05:27N 53°21' E 007°12'0 0.0
2016-Feb-01 04:33N 53°21' E 007°12'0 0.0
2016-Feb-01 03:33N 53°21' E 007°12'0 0.0
2016-Feb-01 02:33N 53°21' E 007°12'0 0.0
2016-Feb-01 01:33N 53°21' E 007°12'0 0.0
2016-Feb-01 00:27N 53°21' E 007°12'0 0.0
2016-Jan-31 23:33N 53°21' E 007°12'0 0.0
2016-Jan-31 22:33N 53°21' E 007°12'0 0.0
2016-Jan-31 21:33N 53°21' E 007°12'0 0.0
2016-Jan-31 20:33N 53°21' E 007°12'0 0.0
2016-Jan-31 19:33N 53°21' E 007°12'0 0.0
2016-Jan-31 18:33N 53°21' E 007°12'0 0.0
2016-Jan-31 17:33N 53°21' E 007°12'0 0.0
2016-Jan-31 16:33N 53°21' E 007°12'0 0.0
2016-Jan-31 15:33N 53°21' E 007°12'0 0.0
2016-Jan-31 14:33N 53°21' E 007°12'0 0.0
2016-Jan-31 13:33N 53°21' E 007°12'0 0.0
2016-Jan-31 12:30N 53°21' E 007°12'0 0.0
2016-Jan-31 11:33N 53°21' E 007°12'0 0.0
2016-Jan-31 10:33N 53°21' E 007°12'0 0.0
2016-Jan-31 09:33N 53°21' E 007°12'0 0.0
2016-Jan-31 08:33N 53°21' E 007°12'0 0.0
2016-Jan-31 07:33N 53°21' E 007°12'0 0.0
2016-Jan-31 06:33N 53°21' E 007°12'0 0.0
2016-Jan-31 05:33N 53°21' E 007°12'0 0.0
2016-Jan-31 04:30N 53°21' E 007°12'0 0.0
2016-Jan-31 03:33N 53°21' E 007°12'  

Dump ship's entire track history